createdAt,value
2022-12-01T18:58:14.574Z,12.35
2022-12-01T18:58:46.784Z,11.38
2022-12-01T18:59:19.571Z,13.05
2022-12-01T18:59:51.426Z,12.25
2022-12-01T19:00:24.012Z,11.38
2022-12-01T19:00:56.179Z,11.02
2022-12-01T19:01:33.807Z,10.52
2022-12-01T19:02:05.874Z,9.68
2022-12-01T19:02:37.842Z,9.30
2022-12-01T19:03:10.474Z,10.82
2022-12-01T19:03:42.536Z,11.45
2022-12-01T19:04:16.638Z,11.95
2022-12-01T19:04:50.447Z,11.63
2022-12-01T19:05:23.330Z,12.05
2022-12-01T19:05:55.168Z,11.18
2022-12-01T19:06:28.055Z,11.05
2022-12-01T19:07:01.653Z,10.05
2022-12-01T19:07:33.562Z,10.73
2022-12-01T19:08:08.233Z,10.00
2022-12-01T19:08:40.618Z,10.68
2022-12-01T19:09:14.086Z,11.30
2022-12-01T19:09:46.340Z,10.43
2022-12-01T19:10:18.236Z,10.38
2022-12-01T19:11:01.290Z,9.88
2022-12-01T19:11:33.488Z,10.15
2022-12-01T19:12:05.679Z,9.55
2022-12-01T19:12:40.991Z,10.02
2022-12-01T19:13:13.210Z,9.60
2022-12-01T19:13:45.240Z,9.95
2022-12-01T19:14:19.617Z,10.88
2022-12-01T19:14:54.210Z,12.48
2022-12-01T19:15:26.558Z,14.65
2022-12-01T19:15:58.851Z,13.18
2022-12-01T19:16:31.174Z,11.65
2022-12-01T19:17:03.275Z,12.73
2022-12-01T19:17:35.205Z,13.73
2022-12-01T19:18:07.807Z,14.55
2022-12-01T19:18:40.092Z,12.85
2022-12-01T19:19:12.026Z,12.45
2022-12-01T19:19:43.860Z,13.93
2022-12-01T19:20:16.143Z,13.43
2022-12-01T19:20:48.477Z,13.73
2022-12-01T19:21:22.779Z,12.63
2022-12-01T19:21:54.677Z,11.70
2022-12-01T19:22:26.638Z,12.48
2022-12-01T19:22:58.643Z,12.60
2022-12-01T19:23:30.984Z,11.23
2022-12-01T19:24:02.903Z,12.40
2022-12-01T19:24:34.892Z,11.82
2022-12-01T19:25:08.024Z,13.02
2022-12-01T19:25:40.243Z,12.18
2022-12-01T19:26:14.854Z,12.80
2022-12-01T19:26:46.697Z,13.75
2022-12-01T19:27:20.836Z,13.68
2022-12-01T19:27:53.838Z,13.77
2022-12-01T19:28:25.792Z,13.65
2022-12-01T19:28:59.367Z,14.98
2022-12-01T19:29:31.287Z,14.00
2022-12-01T19:30:04.568Z,13.38
2022-12-01T19:30:36.857Z,13.57
2022-12-01T19:31:11.305Z,13.48
2022-12-01T19:31:43.983Z,14.20
2022-12-01T19:32:16.042Z,14.80
2022-12-01T19:32:47.926Z,14.63
2022-12-01T19:33:19.934Z,13.93
2022-12-01T19:33:53.346Z,14.23
2022-12-01T19:34:25.981Z,16.45
2022-12-01T19:34:58.216Z,14.45
2022-12-01T19:35:30.045Z,13.32
2022-12-01T19:36:10.654Z,13.40
2022-12-01T19:36:42.973Z,14.98
2022-12-01T19:37:14.831Z,14.90
2022-12-01T19:37:46.982Z,13.95
2022-12-01T19:38:19.746Z,15.70
2022-12-01T19:38:52.739Z,17.15
2022-12-01T19:39:24.593Z,16.95
2022-12-01T19:39:57.254Z,18.08
2022-12-01T19:40:29.221Z,16.62
2022-12-01T19:41:01.495Z,14.95
2022-12-01T19:41:33.461Z,18.62
2022-12-01T19:42:05.746Z,17.90
2022-12-01T19:42:37.799Z,17.40
2022-12-01T19:43:09.670Z,18.23
2022-12-01T19:43:45.219Z,16.58
2022-12-01T19:44:17.224Z,17.17
2022-12-01T19:44:49.332Z,15.98
2022-12-01T19:45:21.294Z,17.33
2022-12-01T19:45:53.226Z,18.45
2022-12-01T19:46:27.590Z,16.95
2022-12-01T19:46:59.733Z,17.12
2022-12-01T19:47:33.386Z,17.12
2022-12-01T19:48:06.568Z,16.70
2022-12-01T19:48:38.850Z,18.73
2022-12-01T19:49:11.108Z,17.87
2022-12-01T19:49:42.986Z,18.00
2022-12-01T19:50:14.821Z,18.45
2022-12-01T19:50:47.005Z,19.02
2022-12-01T19:51:25.227Z,19.05
2022-12-01T19:51:57.150Z,20.08
2022-12-01T19:52:29.860Z,20.10
2022-12-01T19:53:02.707Z,19.48
2022-12-01T19:53:34.572Z,21.42
2022-12-01T19:54:10.879Z,21.05
2022-12-01T19:54:43.064Z,21.15
2022-12-01T19:55:14.996Z,20.42
2022-12-01T19:55:46.853Z,25.33
2022-12-01T19:56:19.057Z,25.88
2022-12-01T19:56:50.910Z,23.12
2022-12-01T19:57:22.830Z,20.37
2022-12-01T19:57:54.706Z,20.08
2022-12-01T19:58:26.862Z,19.75
2022-12-01T19:58:59.525Z,18.67
2022-12-01T19:59:31.871Z,17.65
2022-12-01T20:00:04.671Z,18.58
2022-12-01T20:00:43.804Z,17.85
2022-12-01T20:01:18.532Z,17.55
2022-12-01T20:01:50.543Z,18.75
2022-12-01T20:02:28.909Z,18.02
2022-12-01T20:03:01.616Z,18.98
2022-12-01T20:03:34.146Z,19.62
2022-12-01T20:04:07.174Z,20.48
2022-12-01T20:04:40.054Z,20.10
2022-12-01T20:05:11.992Z,19.20
2022-12-01T20:05:43.895Z,16.33
2022-12-01T20:06:19.769Z,16.45
2022-12-01T20:06:51.632Z,16.95
2022-12-01T20:07:23.621Z,17.48
2022-12-01T20:07:55.534Z,17.85
2022-12-01T20:08:27.452Z,18.45
2022-12-01T20:09:03.011Z,17.75
2022-12-01T20:09:34.963Z,18.12
2022-12-01T20:10:07.366Z,18.45
2022-12-01T20:10:48.878Z,18.17
2022-12-01T20:11:21.084Z,19.52
2022-12-01T20:11:53.478Z,19.37
2022-12-01T20:12:25.337Z,18.10
2022-12-01T20:12:57.217Z,19.27
2022-12-01T20:13:33.616Z,19.10
2022-12-01T20:14:09.267Z,19.25
2022-12-01T20:14:42.130Z,19.98
2022-12-01T20:15:14.526Z,19.15
2022-12-01T20:15:46.345Z,18.37
2022-12-01T20:16:23.995Z,19.02
2022-12-01T20:16:56.434Z,18.75
2022-12-01T20:17:28.368Z,18.55
2022-12-01T20:18:00.234Z,18.12
2022-12-01T20:18:32.213Z,19.48
2022-12-01T20:19:05.221Z,19.08
2022-12-01T20:19:38.105Z,20.25
2022-12-01T20:20:11.433Z,20.00
2022-12-01T20:20:43.271Z,19.15
2022-12-01T20:21:21.283Z,18.50
2022-12-01T20:21:53.094Z,19.27
2022-12-01T20:22:25.922Z,21.23
2022-12-01T20:22:57.951Z,19.45
2022-12-01T20:23:30.061Z,21.62
2022-12-01T20:24:10.231Z,22.30
2022-12-01T20:24:42.130Z,20.58
2022-12-01T20:25:13.997Z,22.10
2022-12-01T20:25:45.831Z,19.12
2022-12-01T20:26:19.252Z,20.08
2022-12-01T20:26:53.586Z,20.17
2022-12-01T20:27:26.382Z,19.80
2022-12-01T20:27:58.228Z,19.75
2022-12-01T20:28:30.545Z,20.88
2022-12-01T20:29:11.571Z,19.58
2022-12-01T20:29:43.392Z,19.40
2022-12-01T20:30:15.509Z,20.45
2022-12-01T20:30:47.335Z,17.55
2022-12-01T20:31:23.718Z,18.55
2022-12-01T20:31:58.735Z,19.23
2022-12-01T20:32:31.128Z,17.98
2022-12-01T20:33:02.967Z,18.15
2022-12-01T20:33:34.831Z,17.55
2022-12-01T20:34:10.664Z,19.00
2022-12-01T20:34:42.512Z,18.77
2022-12-01T20:35:15.607Z,19.37
2022-12-01T20:35:47.588Z,21.90
2022-12-01T20:36:20.383Z,21.87
2022-12-01T20:36:53.069Z,21.70
2022-12-01T20:37:24.935Z,22.92
2022-12-01T20:37:57.026Z,21.40
2022-12-01T20:38:28.850Z,20.90
2022-12-01T20:39:00.769Z,21.90
2022-12-01T20:39:35.254Z,20.25
2022-12-01T20:40:07.666Z,20.85
2022-12-01T20:40:39.511Z,20.62
2022-12-01T20:41:12.199Z,19.83
2022-12-01T20:41:49.557Z,20.98
2022-12-01T20:42:27.216Z,19.55
2022-12-01T20:42:59.519Z,19.30
2022-12-01T20:43:32.487Z,20.42
2022-12-01T20:44:08.158Z,20.20
2022-12-01T20:44:40.430Z,19.08
2022-12-01T20:45:15.520Z,20.25
2022-12-01T20:45:47.601Z,19.42
2022-12-01T20:46:19.801Z,19.58
2022-12-01T20:46:53.323Z,19.37
2022-12-01T20:47:25.706Z,18.50
2022-12-01T20:47:58.045Z,18.87
2022-12-01T20:48:30.872Z,18.90
2022-12-01T20:49:03.308Z,19.12
2022-12-01T20:49:35.144Z,19.02
2022-12-01T20:50:07.342Z,21.37
2022-12-01T20:50:39.258Z,19.52
2022-12-01T20:51:12.811Z,20.40
2022-12-01T20:51:45.463Z,20.02
2022-12-01T20:52:17.314Z,19.12
2022-12-01T20:52:49.131Z,20.62
2022-12-01T20:53:21.076Z,18.85
2022-12-01T20:54:19.683Z,19.90
2022-12-01T20:54:45.018Z,18.25
2022-12-01T20:55:16.898Z,18.08
2022-12-01T20:55:49.148Z,19.60
2022-12-01T20:56:20.993Z,18.95
2022-12-01T20:56:52.888Z,18.62
2022-12-01T20:57:24.767Z,18.45
2022-12-01T20:57:56.659Z,17.50
2022-12-01T20:58:33.196Z,16.77
2022-12-01T20:59:08.473Z,14.90
2022-12-01T20:59:40.457Z,15.82
2022-12-01T21:00:13.659Z,16.37
2022-12-01T21:00:45.722Z,16.62
2022-12-01T21:01:17.996Z,17.05
2022-12-01T21:01:50.189Z,16.52
2022-12-01T21:02:22.171Z,16.95
2022-12-01T21:02:54.227Z,16.00
2022-12-01T21:03:30.884Z,15.98
2022-12-01T21:04:06.611Z,14.77
2022-12-01T21:04:38.757Z,14.55
2022-12-01T21:05:11.080Z,15.20
2022-12-01T21:05:44.420Z,15.38
2022-12-01T21:06:16.998Z,15.13
2022-12-01T21:06:50.152Z,14.65
2022-12-01T21:07:23.130Z,15.68
2022-12-01T21:07:55.121Z,15.85
2022-12-01T21:08:27.033Z,16.37
2022-12-01T21:08:58.892Z,16.90
2022-12-01T21:09:30.756Z,15.13
2022-12-01T21:10:04.406Z,15.57
2022-12-01T21:10:42.521Z,15.05
2022-12-01T21:11:52.808Z,14.63
2022-12-01T21:12:44.407Z,13.75
2022-12-01T21:13:39.526Z,13.95
2022-12-01T21:14:22.134Z,13.88
2022-12-01T21:15:01.479Z,13.40
2022-12-01T21:15:39.701Z,13.55
2022-12-01T21:16:25.657Z,14.00
2022-12-01T21:17:02.951Z,14.98
2022-12-01T21:17:39.885Z,13.38
2022-12-01T21:18:23.299Z,14.77
2022-12-01T21:19:00.392Z,15.40
2022-12-01T21:19:45.489Z,15.15
2022-12-01T21:20:31.015Z,16.23
2022-12-01T21:21:30.961Z,15.48
2022-12-01T21:22:10.499Z,15.38
2022-12-01T21:22:42.454Z,16.02
2022-12-01T21:23:17.289Z,17.30
2022-12-01T21:24:00.210Z,18.80
2022-12-01T21:24:35.872Z,18.30
2022-12-01T21:25:18.805Z,19.12
2022-12-01T21:25:51.265Z,20.55
2022-12-01T21:26:23.499Z,20.98
2022-12-01T21:26:59.483Z,22.23
2022-12-01T21:27:31.520Z,20.98
2022-12-01T21:28:19.163Z,23.40
2022-12-01T21:28:51.030Z,23.12
2022-12-01T21:29:27.158Z,26.95
2022-12-01T21:29:59.081Z,24.08
2022-12-01T21:30:31.237Z,26.33
2022-12-01T21:31:15.477Z,26.95
2022-12-01T21:31:50.718Z,25.15
2022-12-01T21:32:33.947Z,25.10
2022-12-01T21:33:27.380Z,26.02
2022-12-01T21:33:59.206Z,26.23
2022-12-01T21:34:34.787Z,24.87
2022-12-01T21:35:18.185Z,23.65
2022-12-01T21:35:52.294Z,22.85
2022-12-01T21:36:30.802Z,24.50
2022-12-01T21:37:10.752Z,21.45
2022-12-01T21:37:42.664Z,22.35
2022-12-01T21:38:20.461Z,21.98
2022-12-01T21:38:56.747Z,22.17
2022-12-01T21:39:29.919Z,21.27
2022-12-01T21:40:02.037Z,20.75
2022-12-01T21:40:33.875Z,21.17
2022-12-01T21:41:26.991Z,20.33
2022-12-01T21:42:07.002Z,21.27
2022-12-01T21:42:39.174Z,20.83
2022-12-01T21:43:18.249Z,19.30
2022-12-01T21:43:50.250Z,19.67
2022-12-01T21:44:23.965Z,20.05
2022-12-01T21:44:56.858Z,20.73
2022-12-01T21:45:30.371Z,19.85
2022-12-01T21:46:13.638Z,19.42
2022-12-01T21:46:45.818Z,19.92
2022-12-01T21:47:26.462Z,18.67
2022-12-01T21:48:06.395Z,19.60
2022-12-01T21:48:38.255Z,18.50
2022-12-01T21:49:21.654Z,18.75
2022-12-01T21:49:56.008Z,18.25
2022-12-01T21:50:28.060Z,17.40
2022-12-01T21:51:04.807Z,18.25
2022-12-01T21:51:37.830Z,17.00
2022-12-01T21:52:35.636Z,17.10
2022-12-01T21:53:18.929Z,15.95
2022-12-01T21:53:52.829Z,16.05
2022-12-01T21:54:25.540Z,16.27
2022-12-01T21:55:33.157Z,16.60
2022-12-01T21:56:05.172Z,16.42
2022-12-01T21:56:37.065Z,15.55
2022-12-01T21:57:27.386Z,14.85
2022-12-01T21:57:59.295Z,14.77
2022-12-01T21:58:35.603Z,15.27
2022-12-01T21:59:25.592Z,15.40
2022-12-01T22:00:34.888Z,15.25
2022-12-01T22:01:25.708Z,14.82
2022-12-01T22:01:58.028Z,14.77
2022-12-01T22:02:49.412Z,14.93
2022-12-01T22:03:38.042Z,14.95
2022-12-01T22:04:20.184Z,15.27
2022-12-01T22:04:52.420Z,16.15
2022-12-01T22:05:35.238Z,14.80
2022-12-01T22:06:29.833Z,15.57
2022-12-01T22:07:03.364Z,14.35
2022-12-01T22:07:35.320Z,15.23
2022-12-01T22:08:25.338Z,17.00
2022-12-01T22:09:04.376Z,15.77
2022-12-01T22:09:36.742Z,16.08
2022-12-01T22:10:49.798Z,15.90
2022-12-01T22:11:29.471Z,14.98
2022-12-01T22:12:10.445Z,16.40
2022-12-01T22:12:45.059Z,16.35
2022-12-01T22:13:16.958Z,16.40
2022-12-01T22:14:10.906Z,15.65
2022-12-01T22:14:45.057Z,16.23
2022-12-01T22:15:42.226Z,16.37
2022-12-01T22:16:25.723Z,14.80
2022-12-01T22:17:06.990Z,15.35
2022-12-01T22:17:38.919Z,15.95
2022-12-01T22:18:49.207Z,15.07
2022-12-01T22:19:25.138Z,15.20
2022-12-01T22:20:20.845Z,15.43
2022-12-01T22:20:53.253Z,13.43
2022-12-01T22:21:35.206Z,15.60
2022-12-01T22:22:15.598Z,15.75
2022-12-01T22:22:47.447Z,15.15
2022-12-01T22:23:20.199Z,14.50
2022-12-01T22:24:10.022Z,16.80
2022-12-01T22:24:59.501Z,17.30
2022-12-01T22:25:31.379Z,15.82
2022-12-01T22:26:16.660Z,15.30
2022-12-01T22:26:52.692Z,16.35
2022-12-01T22:27:43.278Z,16.77
2022-12-01T22:28:21.939Z,16.45
2022-12-01T22:28:58.074Z,18.20
2022-12-01T22:29:34.182Z,18.10
2022-12-01T22:30:06.027Z,17.20
2022-12-01T22:30:37.892Z,19.27
2022-12-01T22:31:15.831Z,17.98
2022-12-01T22:31:47.973Z,17.48
2022-12-01T22:32:29.245Z,18.05
2022-12-01T22:33:05.532Z,17.98
2022-12-01T22:33:38.423Z,17.58
2022-12-01T22:34:13.734Z,17.12
2022-12-01T22:34:57.903Z,18.65
2022-12-01T22:35:51.670Z,18.35
2022-12-01T22:36:26.387Z,18.85
2022-12-01T22:36:59.375Z,17.48
2022-12-01T22:37:44.132Z,19.23
2022-12-01T22:38:36.667Z,19.35
2022-12-01T22:39:27.185Z,21.23
2022-12-01T22:39:59.013Z,21.92
2022-12-01T22:40:49.136Z,22.33
2022-12-01T22:41:22.020Z,22.20
2022-12-01T22:41:59.430Z,22.35
2022-12-01T22:42:35.395Z,24.27
2022-12-01T22:43:16.255Z,23.25
2022-12-01T22:44:02.222Z,22.17
2022-12-01T22:44:34.078Z,21.30
2022-12-01T22:45:26.123Z,20.15
2022-12-01T22:46:25.889Z,19.60
2022-12-01T22:47:02.214Z,19.75
2022-12-01T22:47:34.303Z,20.02
2022-12-01T22:48:22.276Z,18.85
2022-12-01T22:49:01.451Z,20.20
2022-12-01T22:49:34.216Z,19.90
2022-12-01T22:50:27.486Z,19.15
2022-12-01T22:51:14.972Z,18.95
2022-12-01T22:51:48.161Z,17.73
2022-12-01T22:52:26.887Z,18.58
2022-12-01T22:53:17.973Z,18.75
2022-12-01T22:53:51.741Z,18.40
2022-12-01T22:54:28.275Z,19.77
2022-12-01T22:55:00.122Z,16.17
2022-12-01T22:55:32.109Z,16.20
2022-12-01T22:56:21.247Z,17.42
2022-12-01T22:57:22.970Z,15.13
2022-12-01T22:57:55.064Z,14.40
2022-12-01T22:58:37.799Z,14.23
2022-12-01T22:59:18.728Z,15.00
2022-12-01T22:59:51.960Z,14.27
2022-12-01T23:00:24.444Z,14.90
2022-12-01T23:01:01.352Z,14.38
2022-12-01T23:01:35.442Z,14.43
2022-12-01T23:02:19.311Z,14.98
2022-12-01T23:02:55.584Z,15.57
2022-12-01T23:03:27.963Z,14.70
2022-12-01T23:04:20.391Z,14.93
2022-12-01T23:04:58.493Z,13.90
2022-12-01T23:05:31.031Z,15.05
2022-12-01T23:06:27.598Z,16.92
2022-12-01T23:07:09.752Z,17.77
2022-12-01T23:07:43.156Z,18.77
2022-12-01T23:08:22.226Z,17.60
2022-12-01T23:08:54.081Z,17.67
2022-12-01T23:09:39.980Z,18.12
2022-12-01T23:10:18.907Z,17.65
2022-12-01T23:10:52.015Z,17.55
2022-12-01T23:11:23.878Z,18.33
2022-12-01T23:12:00.569Z,17.65
2022-12-01T23:12:34.599Z,16.73
2022-12-01T23:13:18.620Z,17.10
2022-12-01T23:13:50.572Z,17.45
2022-12-01T23:14:23.521Z,16.87
2022-12-01T23:14:58.076Z,18.40
2022-12-01T23:15:39.706Z,18.35
2022-12-01T23:16:11.849Z,16.58
2022-12-01T23:16:43.775Z,16.95
2022-12-01T23:17:28.967Z,17.85
2022-12-01T23:18:23.251Z,17.62
2022-12-01T23:18:55.504Z,16.10
2022-12-01T23:19:27.459Z,14.77
2022-12-01T23:20:11.162Z,15.88
2022-12-01T23:20:46.071Z,15.80
2022-12-01T23:21:17.901Z,16.35
2022-12-01T23:21:52.495Z,16.30
2022-12-01T23:22:24.369Z,15.95
2022-12-01T23:22:57.742Z,16.23
2022-12-01T23:23:34.885Z,16.30
2022-12-01T23:24:08.701Z,14.87
2022-12-01T23:24:40.664Z,15.38
2022-12-01T23:25:15.344Z,15.50
2022-12-01T23:25:49.864Z,14.60
2022-12-01T23:26:21.742Z,14.23
2022-12-01T23:26:53.646Z,15.32
2022-12-01T23:27:25.473Z,14.32
2022-12-01T23:28:04.221Z,12.63
2022-12-01T23:28:38.779Z,15.32
2022-12-01T23:29:10.626Z,14.77
2022-12-01T23:29:42.550Z,14.65
2022-12-01T23:30:16.072Z,15.40
2022-12-01T23:30:51.489Z,15.10
2022-12-01T23:31:24.147Z,14.02
2022-12-01T23:31:56.123Z,15.00
2022-12-01T23:32:28.000Z,14.52
2022-12-01T23:33:08.740Z,14.48
2022-12-01T23:33:40.674Z,14.07
2022-12-01T23:34:17.545Z,14.30
2022-12-01T23:34:49.663Z,14.63
2022-12-01T23:35:21.657Z,14.02
2022-12-01T23:36:01.735Z,14.15
2022-12-01T23:36:33.582Z,13.75
2022-12-01T23:37:26.246Z,14.77
2022-12-01T23:37:58.160Z,13.75
2022-12-01T23:38:41.915Z,14.40
2022-12-01T23:39:16.503Z,13.60
2022-12-01T23:39:49.421Z,13.23
2022-12-01T23:40:31.272Z,14.02
2022-12-01T23:41:07.079Z,13.93
2022-12-01T23:41:40.855Z,13.82
2022-12-01T23:42:13.070Z,13.93
2022-12-01T23:42:44.959Z,13.98
2022-12-01T23:43:23.410Z,13.90
2022-12-01T23:43:57.459Z,14.85
2022-12-01T23:44:40.987Z,15.38
2022-12-01T23:45:25.139Z,14.18
